sensor_id;sensor_type;location;lat;lon;timestamp;temperature;humidity
11922;DHT22;6021;51.182;3.160;2022-12-31T00:01:30;12.50;99.90
11922;DHT22;6021;51.182;3.160;2022-12-31T00:03:59;12.40;99.90
11922;DHT22;6021;51.182;3.160;2022-12-31T00:06:32;12.40;99.90
11922;DHT22;6021;51.182;3.160;2022-12-31T00:09:03;12.40;99.90
11922;DHT22;6021;51.182;3.160;2022-12-31T00:11:32;12.40;99.90
11922;DHT22;6021;51.182;3.160;2022-12-31T00:14:01;12.20;99.90
11922;DHT22;6021;51.182;3.160;2022-12-31T00:16:35;12.30;99.90
11922;DHT22;6021;51.182;3.160;2022-12-31T00:21:50;12.20;99.90
11922;DHT22;6021;51.182;3.160;2022-12-31T00:24:19;12.10;99.90
11922;DHT22;6021;51.182;3.160;2022-12-31T00:26:47;12.30;99.90
11922;DHT22;6021;51.182;3.160;2022-12-31T00:29:16;12.10;99.90
11922;DHT22;6021;51.182;3.160;2022-12-31T00:31:44;12.10;99.90
11922;DHT22;6021;51.182;3.160;2022-12-31T00:34:12;12.00;99.90
11922;DHT22;6021;51.182;3.160;2022-12-31T00:36:41;12.00;99.90
11922;DHT22;6021;51.182;3.160;2022-12-31T00:39:09;11.90;99.90
11922;DHT22;6021;51.182;3.160;2022-12-31T00:41:38;11.80;99.90
11922;DHT22;6021;51.182;3.160;2022-12-31T00:44:07;11.70;99.90
11922;DHT22;6021;51.182;3.160;2022-12-31T00:46:36;11.70;99.90
11922;DHT22;6021;51.182;3.160;2022-12-31T00:49:04;11.60;99.90
11922;DHT22;6021;51.182;3.160;2022-12-31T00:51:33;11.50;99.90
11922;DHT22;6021;51.182;3.160;2022-12-31T00:54:01;11.50;99.90
11922;DHT22;6021;51.182;3.160;2022-12-31T00:56:30;11.50;99.90
11922;DHT22;6021;51.182;3.160;2022-12-31T00:58:59;11.40;99.90
11922;DHT22;6021;51.182;3.160;2022-12-31T01:01:35;11.40;99.90
11922;DHT22;6021;51.182;3.160;2022-12-31T01:04:02;11.40;99.90
11922;DHT22;6021;51.182;3.160;2022-12-31T01:06:31;11.40;99.90
11922;DHT22;6021;51.182;3.160;2022-12-31T01:08:59;11.40;99.90
11922;DHT22;6021;51.182;3.160;2022-12-31T01:11:28;11.40;99.90
11922;DHT22;6021;51.182;3.160;2022-12-31T01:14:02;11.40;99.90
11922;DHT22;6021;51.182;3.160;2022-12-31T01:16:44;11.40;99.90
11922;DHT22;6021;51.182;3.160;2022-12-31T01:19:05;11.40;99.90
11922;DHT22;6021;51.182;3.160;2022-12-31T01:21:36;11.50;99.90
11922;DHT22;6021;51.182;3.160;2022-12-31T01:24:05;11.60;99.90
11922;DHT22;6021;51.182;3.160;2022-12-31T01:26:34;11.60;99.90
11922;DHT22;6021;51.182;3.160;2022-12-31T01:29:04;11.40;99.90
11922;DHT22;6021;51.182;3.160;2022-12-31T01:31:34;11.60;99.90
11922;DHT22;6021;51.182;3.160;2022-12-31T01:34:03;11.60;99.90
11922;DHT22;6021;51.182;3.160;2022-12-31T01:36:33;11.40;99.90
11922;DHT22;6021;51.182;3.160;2022-12-31T01:39:04;11.40;99.90
11922;DHT22;6021;51.182;3.160;2022-12-31T01:41:35;11.30;99.90
11922;DHT22;6021;51.182;3.160;2022-12-31T01:46:55;11.60;99.90
11922;DHT22;6021;51.182;3.160;2022-12-31T01:49:46;11.30;99.90
11922;DHT22;6021;51.182;3.160;2022-12-31T01:52:14;11.40;99.90
11922;DHT22;6021;51.182;3.160;2022-12-31T01:54:51;11.40;99.90
11922;DHT22;6021;51.182;3.160;2022-12-31T01:57:15;11.30;99.90
11922;DHT22;6021;51.182;3.160;2022-12-31T01:59:44;11.30;99.90
11922;DHT22;6021;51.182;3.160;2022-12-31T02:02:13;11.30;99.90
11922;DHT22;6021;51.182;3.160;2022-12-31T02:04:42;11.40;99.90
11922;DHT22;6021;51.182;3.160;2022-12-31T02:07:11;11.30;99.90
11922;DHT22;6021;51.182;3.160;2022-12-31T02:09:40;11.50;99.90
11922;DHT22;6021;51.182;3.160;2022-12-31T02:12:09;11.30;99.90
11922;DHT22;6021;51.182;3.160;2022-12-31T02:14:43;11.20;99.90
11922;DHT22;6021;51.182;3.160;2022-12-31T02:34:06;11.10;99.90
11922;DHT22;6021;51.182;3.160;2022-12-31T02:36:33;11.30;99.90
11922;DHT22;6021;51.182;3.160;2022-12-31T02:39:03;11.30;99.90
11922;DHT22;6021;51.182;3.160;2022-12-31T02:41:32;11.30;99.90
11922;DHT22;6021;51.182;3.160;2022-12-31T02:44:30;11.30;99.90
11922;DHT22;6021;51.182;3.160;2022-12-31T02:47:25;11.40;99.90
11922;DHT22;6021;51.182;3.160;2022-12-31T02:53:07;11.30;99.90
11922;DHT22;6021;51.182;3.160;2022-12-31T02:55:48;11.20;99.90
11922;DHT22;6021;51.182;3.160;2022-12-31T02:58:18;11.30;99.90
11922;DHT22;6021;51.182;3.160;2022-12-31T03:00:50;11.60;99.90
11922;DHT22;6021;51.182;3.160;2022-12-31T03:03:37;11.20;99.90
11922;DHT22;6021;51.182;3.160;2022-12-31T03:06:07;11.00;99.90
11922;DHT22;6021;51.182;3.160;2022-12-31T03:08:36;11.20;99.90
11922;DHT22;6021;51.182;3.160;2022-12-31T03:11:08;11.20;99.90
11922;DHT22;6021;51.182;3.160;2022-12-31T03:13:38;11.30;99.90
11922;DHT22;6021;51.182;3.160;2022-12-31T03:16:06;11.50;99.90
11922;DHT22;6021;51.182;3.160;2022-12-31T03:18:35;11.20;99.90
11922;DHT22;6021;51.182;3.160;2022-12-31T03:21:20;11.00;99.90
11922;DHT22;6021;51.182;3.160;2022-12-31T03:24:07;11.10;99.90
11922;DHT22;6021;51.182;3.160;2022-12-31T03:26:53;11.00;99.90
11922;DHT22;6021;51.182;3.160;2022-12-31T03:29:21;11.20;99.90
11922;DHT22;6021;51.182;3.160;2022-12-31T03:31:50;11.10;99.90
11922;DHT22;6021;51.182;3.160;2022-12-31T03:34:18;11.20;99.90
11922;DHT22;6021;51.182;3.160;2022-12-31T03:36:47;11.20;99.90
11922;DHT22;6021;51.182;3.160;2022-12-31T03:39:15;11.20;99.90
11922;DHT22;6021;51.182;3.160;2022-12-31T03:41:44;11.40;99.90
11922;DHT22;6021;51.182;3.160;2022-12-31T03:44:12;11.30;99.90
11922;DHT22;6021;51.182;3.160;2022-12-31T03:46:40;11.60;99.90
11922;DHT22;6021;51.182;3.160;2022-12-31T03:49:09;11.40;99.90
11922;DHT22;6021;51.182;3.160;2022-12-31T03:51:37;11.40;99.90
11922;DHT22;6021;51.182;3.160;2022-12-31T03:54:05;11.60;99.90
11922;DHT22;6021;51.182;3.160;2022-12-31T03:56:34;11.90;99.90
11922;DHT22;6021;51.182;3.160;2022-12-31T03:59:02;11.80;99.90
11922;DHT22;6021;51.182;3.160;2022-12-31T04:01:31;11.70;99.90
11922;DHT22;6021;51.182;3.160;2022-12-31T04:03:59;11.90;99.90
11922;DHT22;6021;51.182;3.160;2022-12-31T04:06:27;11.60;99.90
11922;DHT22;6021;51.182;3.160;2022-12-31T04:08:56;11.70;99.90
11922;DHT22;6021;51.182;3.160;2022-12-31T04:11:24;11.80;99.90
11922;DHT22;6021;51.182;3.160;2022-12-31T04:13:52;11.70;99.90
11922;DHT22;6021;51.182;3.160;2022-12-31T04:16:21;11.80;99.90
11922;DHT22;6021;51.182;3.160;2022-12-31T04:18:50;11.80;99.90
11922;DHT22;6021;51.182;3.160;2022-12-31T04:23:54;12.30;99.90
11922;DHT22;6021;51.182;3.160;2022-12-31T04:26:23;12.10;99.90
11922;DHT22;6021;51.182;3.160;2022-12-31T04:28:51;12.10;99.90
11922;DHT22;6021;51.182;3.160;2022-12-31T04:31:20;12.20;99.90
11922;DHT22;6021;51.182;3.160;2022-12-31T04:33:48;12.30;99.90
11922;DHT22;6021;51.182;3.160;2022-12-31T04:36:17;12.20;99.90
11922;DHT22;6021;51.182;3.160;2022-12-31T04:38:45;12.70;99.90
11922;DHT22;6021;51.182;3.160;2022-12-31T04:41:13;12.50;99.90
11922;DHT22;6021;51.182;3.160;2022-12-31T04:43:53;12.60;99.90
11922;DHT22;6021;51.182;3.160;2022-12-31T04:46:24;12.50;99.90
11922;DHT22;6021;51.182;3.160;2022-12-31T04:48:53;12.70;99.90
11922;DHT22;6021;51.182;3.160;2022-12-31T04:51:22;12.80;99.90
11922;DHT22;6021;51.182;3.160;2022-12-31T04:53:51;12.90;99.90
11922;DHT22;6021;51.182;3.160;2022-12-31T04:56:20;13.00;99.90
11922;DHT22;6021;51.182;3.160;2022-12-31T04:58:48;12.90;99.90
11922;DHT22;6021;51.182;3.160;2022-12-31T05:01:17;12.90;99.90
11922;DHT22;6021;51.182;3.160;2022-12-31T05:03:45;13.10;99.90
11922;DHT22;6021;51.182;3.160;2022-12-31T05:06:20;13.00;99.90
11922;DHT22;6021;51.182;3.160;2022-12-31T05:08:49;13.10;99.90
11922;DHT22;6021;51.182;3.160;2022-12-31T05:11:17;13.20;99.90
11922;DHT22;6021;51.182;3.160;2022-12-31T05:13:46;13.20;99.90
11922;DHT22;6021;51.182;3.160;2022-12-31T05:16:14;13.10;99.90
11922;DHT22;6021;51.182;3.160;2022-12-31T05:18:43;13.10;99.90
11922;DHT22;6021;51.182;3.160;2022-12-31T05:21:14;13.00;99.90
11922;DHT22;6021;51.182;3.160;2022-12-31T05:23:42;13.10;99.90
11922;DHT22;6021;51.182;3.160;2022-12-31T05:26:11;13.10;99.90
11922;DHT22;6021;51.182;3.160;2022-12-31T05:28:40;13.20;99.90
11922;DHT22;6021;51.182;3.160;2022-12-31T05:31:08;13.10;99.90
11922;DHT22;6021;51.182;3.160;2022-12-31T05:33:37;13.20;99.90
11922;DHT22;6021;51.182;3.160;2022-12-31T05:36:05;13.20;99.90
11922;DHT22;6021;51.182;3.160;2022-12-31T05:38:35;13.20;99.90
11922;DHT22;6021;51.182;3.160;2022-12-31T05:41:05;13.20;99.90
11922;DHT22;6021;51.182;3.160;2022-12-31T05:43:34;13.20;99.90
11922;DHT22;6021;51.182;3.160;2022-12-31T05:46:03;13.30;99.90
11922;DHT22;6021;51.182;3.160;2022-12-31T05:48:32;13.40;99.90
11922;DHT22;6021;51.182;3.160;2022-12-31T05:51:00;13.30;99.90
11922;DHT22;6021;51.182;3.160;2022-12-31T05:53:29;13.40;99.90
11922;DHT22;6021;51.182;3.160;2022-12-31T05:55:57;13.50;99.90
11922;DHT22;6021;51.182;3.160;2022-12-31T05:58:25;13.40;99.90
11922;DHT22;6021;51.182;3.160;2022-12-31T06:00:54;13.50;99.90
11922;DHT22;6021;51.182;3.160;2022-12-31T06:03:22;13.60;99.90
11922;DHT22;6021;51.182;3.160;2022-12-31T06:05:51;13.60;99.90
11922;DHT22;6021;51.182;3.160;2022-12-31T06:08:19;13.50;99.90
11922;DHT22;6021;51.182;3.160;2022-12-31T06:10:47;13.50;99.90
11922;DHT22;6021;51.182;3.160;2022-12-31T06:13:16;13.80;99.90
11922;DHT22;6021;51.182;3.160;2022-12-31T06:15:44;13.60;99.90
11922;DHT22;6021;51.182;3.160;2022-12-31T06:18:12;13.50;99.90
11922;DHT22;6021;51.182;3.160;2022-12-31T06:20:40;13.50;99.90
11922;DHT22;6021;51.182;3.160;2022-12-31T06:23:09;13.40;99.90
11922;DHT22;6021;51.182;3.160;2022-12-31T06:25:38;13.50;99.90
11922;DHT22;6021;51.182;3.160;2022-12-31T06:28:06;13.50;99.90
11922;DHT22;6021;51.182;3.160;2022-12-31T06:30:35;13.50;99.90
11922;DHT22;6021;51.182;3.160;2022-12-31T06:33:03;13.50;99.90
11922;DHT22;6021;51.182;3.160;2022-12-31T06:35:32;13.60;99.90
11922;DHT22;6021;51.182;3.160;2022-12-31T06:38:00;13.40;99.90
11922;DHT22;6021;51.182;3.160;2022-12-31T06:40:28;13.50;99.90
11922;DHT22;6021;51.182;3.160;2022-12-31T06:42:57;13.60;99.90
11922;DHT22;6021;51.182;3.160;2022-12-31T06:45:25;13.80;99.90
11922;DHT22;6021;51.182;3.160;2022-12-31T06:47:54;13.50;99.90
11922;DHT22;6021;51.182;3.160;2022-12-31T06:50:22;13.50;99.90
11922;DHT22;6021;51.182;3.160;2022-12-31T06:52:51;13.60;99.90
11922;DHT22;6021;51.182;3.160;2022-12-31T06:55:19;13.60;99.90
11922;DHT22;6021;51.182;3.160;2022-12-31T06:57:48;13.50;99.90
11922;DHT22;6021;51.182;3.160;2022-12-31T07:00:17;13.60;99.90
11922;DHT22;6021;51.182;3.160;2022-12-31T07:05:49;13.60;99.90
11922;DHT22;6021;51.182;3.160;2022-12-31T07:16:48;14.30;99.90
11922;DHT22;6021;51.182;3.160;2022-12-31T07:19:43;14.10;99.90
11922;DHT22;6021;51.182;3.160;2022-12-31T07:22:12;14.10;99.90
11922;DHT22;6021;51.182;3.160;2022-12-31T07:24:43;14.10;99.90
11922;DHT22;6021;51.182;3.160;2022-12-31T07:30:08;14.00;99.90
11922;DHT22;6021;51.182;3.160;2022-12-31T07:33:02;14.00;99.90
11922;DHT22;6021;51.182;3.160;2022-12-31T07:35:35;14.00;99.90
11922;DHT22;6021;51.182;3.160;2022-12-31T07:38:22;14.00;99.90
11922;DHT22;6021;51.182;3.160;2022-12-31T07:48:53;14.00;99.90
11922;DHT22;6021;51.182;3.160;2022-12-31T07:51:21;14.00;99.90
11922;DHT22;6021;51.182;3.160;2022-12-31T07:53:50;14.00;99.90
11922;DHT22;6021;51.182;3.160;2022-12-31T07:56:18;14.00;99.90
11922;DHT22;6021;51.182;3.160;2022-12-31T07:59:01;14.10;99.90
11922;DHT22;6021;51.182;3.160;2022-12-31T08:01:55;14.10;99.90
11922;DHT22;6021;51.182;3.160;2022-12-31T08:10:58;14.30;99.90
11922;DHT22;6021;51.182;3.160;2022-12-31T08:12:37;14.10;99.90
11922;DHT22;6021;51.182;3.160;2022-12-31T08:17:52;14.10;99.90
11922;DHT22;6021;51.182;3.160;2022-12-31T08:20:20;14.10;99.90
11922;DHT22;6021;51.182;3.160;2022-12-31T08:23:14;14.10;99.90
11922;DHT22;6021;51.182;3.160;2022-12-31T08:26:02;14.20;99.90
11922;DHT22;6021;51.182;3.160;2022-12-31T08:31:35;14.10;99.90
11922;DHT22;6021;51.182;3.160;2022-12-31T08:34:27;14.20;99.90
11922;DHT22;6021;51.182;3.160;2022-12-31T08:42:59;14.20;99.90
11922;DHT22;6021;51.182;3.160;2022-12-31T08:45:47;14.20;99.90
11922;DHT22;6021;51.182;3.160;2022-12-31T08:50:53;14.40;99.90
11922;DHT22;6021;51.182;3.160;2022-12-31T08:53:22;14.40;99.90
11922;DHT22;6021;51.182;3.160;2022-12-31T08:55:55;14.50;99.90
11922;DHT22;6021;51.182;3.160;2022-12-31T09:01:19;14.40;99.90
11922;DHT22;6021;51.182;3.160;2022-12-31T09:06:54;14.40;99.90
11922;DHT22;6021;51.182;3.160;2022-12-31T09:09:34;14.40;99.90
11922;DHT22;6021;51.182;3.160;2022-12-31T09:14:45;14.40;99.90
11922;DHT22;6021;51.182;3.160;2022-12-31T09:20:05;14.40;99.90
11922;DHT22;6021;51.182;3.160;2022-12-31T09:22:33;14.40;99.90
11922;DHT22;6021;51.182;3.160;2022-12-31T09:25:02;14.50;99.90
11922;DHT22;6021;51.182;3.160;2022-12-31T09:27:37;14.50;99.90
11922;DHT22;6021;51.182;3.160;2022-12-31T09:30:11;14.50;99.90
11922;DHT22;6021;51.182;3.160;2022-12-31T09:35:35;14.50;99.90
11922;DHT22;6021;51.182;3.160;2022-12-31T09:38:15;14.50;99.90
11922;DHT22;6021;51.182;3.160;2022-12-31T09:43:50;14.40;99.90
11922;DHT22;6021;51.182;3.160;2022-12-31T09:46:44;14.40;99.90
11922;DHT22;6021;51.182;3.160;2022-12-31T09:57:57;14.60;99.90
11922;DHT22;6021;51.182;3.160;2022-12-31T10:00:43;14.60;99.90
11922;DHT22;6021;51.182;3.160;2022-12-31T10:03:28;14.50;99.90
11922;DHT22;6021;51.182;3.160;2022-12-31T10:06:17;14.70;99.90
11922;DHT22;6021;51.182;3.160;2022-12-31T10:09:04;14.60;99.90
11922;DHT22;6021;51.182;3.160;2022-12-31T10:14:50;14.60;99.90
11922;DHT22;6021;51.182;3.160;2022-12-31T10:20:28;14.60;99.90
11922;DHT22;6021;51.182;3.160;2022-12-31T10:28:58;14.50;99.90
11922;DHT22;6021;51.182;3.160;2022-12-31T10:31:36;14.50;99.90
11922;DHT22;6021;51.182;3.160;2022-12-31T10:34:24;14.50;99.90
11922;DHT22;6021;51.182;3.160;2022-12-31T10:37:02;14.60;99.90
11922;DHT22;6021;51.182;3.160;2022-12-31T10:42:22;14.70;99.90
11922;DHT22;6021;51.182;3.160;2022-12-31T11:02:00;14.60;99.90
11922;DHT22;6021;51.182;3.160;2022-12-31T11:16:18;14.70;99.90
11922;DHT22;6021;51.182;3.160;2022-12-31T11:32:36;14.70;99.90
11922;DHT22;6021;51.182;3.160;2022-12-31T11:35:22;14.50;99.90
11922;DHT22;6021;51.182;3.160;2022-12-31T11:40:46;14.50;99.90
11922;DHT22;6021;51.182;3.160;2022-12-31T11:48:42;14.60;99.90
11922;DHT22;6021;51.182;3.160;2022-12-31T11:56:29;14.40;99.90
11922;DHT22;6021;51.182;3.160;2022-12-31T11:58:57;14.40;99.90
11922;DHT22;6021;51.182;3.160;2022-12-31T12:04:10;14.50;99.90
11922;DHT22;6021;51.182;3.160;2022-12-31T12:06:39;14.50;99.90
11922;DHT22;6021;51.182;3.160;2022-12-31T12:09:14;14.40;99.90
11922;DHT22;6021;51.182;3.160;2022-12-31T12:11:43;14.50;99.90
11922;DHT22;6021;51.182;3.160;2022-12-31T12:14:40;14.50;99.90
11922;DHT22;6021;51.182;3.160;2022-12-31T12:17:23;14.50;99.90
11922;DHT22;6021;51.182;3.160;2022-12-31T12:19:52;14.40;99.90
11922;DHT22;6021;51.182;3.160;2022-12-31T12:22:23;14.50;99.90
11922;DHT22;6021;51.182;3.160;2022-12-31T12:25:06;14.40;99.90
11922;DHT22;6021;51.182;3.160;2022-12-31T12:27:35;14.40;99.90
11922;DHT22;6021;51.182;3.160;2022-12-31T12:30:13;14.40;99.90
11922;DHT22;6021;51.182;3.160;2022-12-31T12:32:49;14.40;99.90
11922;DHT22;6021;51.182;3.160;2022-12-31T12:35:15;14.40;99.90
11922;DHT22;6021;51.182;3.160;2022-12-31T12:37:45;14.30;99.90
11922;DHT22;6021;51.182;3.160;2022-12-31T12:40:21;14.30;99.90
11922;DHT22;6021;51.182;3.160;2022-12-31T12:42:54;14.20;99.90
11922;DHT22;6021;51.182;3.160;2022-12-31T12:45:28;14.20;99.90
11922;DHT22;6021;51.182;3.160;2022-12-31T12:48:01;14.10;99.90
11922;DHT22;6021;51.182;3.160;2022-12-31T12:50:38;14.10;99.90
11922;DHT22;6021;51.182;3.160;2022-12-31T13:01:39;13.80;99.90
11922;DHT22;6021;51.182;3.160;2022-12-31T13:09:49;13.90;99.90
11922;DHT22;6021;51.182;3.160;2022-12-31T13:17:53;13.90;99.90
11922;DHT22;6021;51.182;3.160;2022-12-31T13:26:23;14.20;99.90
11922;DHT22;6021;51.182;3.160;2022-12-31T13:28:53;14.10;99.90
11922;DHT22;6021;51.182;3.160;2022-12-31T13:31:25;14.10;99.90
11922;DHT22;6021;51.182;3.160;2022-12-31T13:34:05;14.30;99.90
11922;DHT22;6021;51.182;3.160;2022-12-31T13:36:37;14.20;99.90
11922;DHT22;6021;51.182;3.160;2022-12-31T13:39:23;14.30;99.90
11922;DHT22;6021;51.182;3.160;2022-12-31T13:41:59;14.20;99.90
11922;DHT22;6021;51.182;3.160;2022-12-31T13:44:34;14.50;99.90
11922;DHT22;6021;51.182;3.160;2022-12-31T13:52:44;14.60;99.90
11922;DHT22;6021;51.182;3.160;2022-12-31T13:55:32;14.60;99.90
11922;DHT22;6021;51.182;3.160;2022-12-31T13:58:22;14.60;99.90
11922;DHT22;6021;51.182;3.160;2022-12-31T14:00:53;14.70;99.90
11922;DHT22;6021;51.182;3.160;2022-12-31T14:03:39;14.70;99.90
11922;DHT22;6021;51.182;3.160;2022-12-31T14:08:44;14.50;99.90
11922;DHT22;6021;51.182;3.160;2022-12-31T14:12:19;14.40;99.90
11922;DHT22;6021;51.182;3.160;2022-12-31T14:16:49;14.30;99.90
11922;DHT22;6021;51.182;3.160;2022-12-31T14:19:40;14.30;99.90
11922;DHT22;6021;51.182;3.160;2022-12-31T14:22:17;14.20;99.90
11922;DHT22;6021;51.182;3.160;2022-12-31T14:24:45;14.30;99.90
11922;DHT22;6021;51.182;3.160;2022-12-31T14:27:38;14.30;99.90
11922;DHT22;6021;51.182;3.160;2022-12-31T14:30:05;14.70;99.90
11922;DHT22;6021;51.182;3.160;2022-12-31T14:36:05;14.20;99.90
11922;DHT22;6021;51.182;3.160;2022-12-31T14:52:21;14.20;99.90
11922;DHT22;6021;51.182;3.160;2022-12-31T14:55:17;14.30;99.90
11922;DHT22;6021;51.182;3.160;2022-12-31T14:57:38;14.40;99.90
11922;DHT22;6021;51.182;3.160;2022-12-31T15:05:36;14.30;99.90
11922;DHT22;6021;51.182;3.160;2022-12-31T15:13:43;14.30;99.90
11922;DHT22;6021;51.182;3.160;2022-12-31T15:16:39;14.40;99.90
11922;DHT22;6021;51.182;3.160;2022-12-31T15:22:16;14.40;99.90
11922;DHT22;6021;51.182;3.160;2022-12-31T15:24:42;14.40;99.90
11922;DHT22;6021;51.182;3.160;2022-12-31T15:30:05;14.30;99.90
11922;DHT22;6021;51.182;3.160;2022-12-31T15:32:39;14.40;99.90
11922;DHT22;6021;51.182;3.160;2022-12-31T15:38:15;14.40;99.90
11922;DHT22;6021;51.182;3.160;2022-12-31T15:40:41;14.50;99.90
11922;DHT22;6021;51.182;3.160;2022-12-31T15:43:08;14.50;99.90
11922;DHT22;6021;51.182;3.160;2022-12-31T15:45:36;14.40;99.90
11922;DHT22;6021;51.182;3.160;2022-12-31T15:48:14;14.40;99.90
11922;DHT22;6021;51.182;3.160;2022-12-31T15:50:43;14.40;99.90
11922;DHT22;6021;51.182;3.160;2022-12-31T15:53:31;14.40;99.90
11922;DHT22;6021;51.182;3.160;2022-12-31T15:55:56;14.20;99.90
11922;DHT22;6021;51.182;3.160;2022-12-31T15:58:33;14.20;99.90
11922;DHT22;6021;51.182;3.160;2022-12-31T16:03:30;14.10;99.90
11922;DHT22;6021;51.182;3.160;2022-12-31T16:06:07;14.00;99.90
11922;DHT22;6021;51.182;3.160;2022-12-31T16:08:34;14.00;99.90
11922;DHT22;6021;51.182;3.160;2022-12-31T16:11:05;14.10;99.90
11922;DHT22;6021;51.182;3.160;2022-12-31T16:13:38;14.10;99.90
11922;DHT22;6021;51.182;3.160;2022-12-31T16:16:16;14.10;99.90
11922;DHT22;6021;51.182;3.160;2022-12-31T16:18:43;14.10;99.20
11922;DHT22;6021;51.182;3.160;2022-12-31T16:24:04;14.10;98.90
11922;DHT22;6021;51.182;3.160;2022-12-31T16:26:45;14.10;99.90
11922;DHT22;6021;51.182;3.160;2022-12-31T16:29:16;14.10;82.10
11922;DHT22;6021;51.182;3.160;2022-12-31T16:31:46;14.20;72.00
11922;DHT22;6021;51.182;3.160;2022-12-31T16:34:18;14.10;77.20
11922;DHT22;6021;51.182;3.160;2022-12-31T16:36:56;14.10;37.30
11922;DHT22;6021;51.182;3.160;2022-12-31T16:39:35;14.00;64.10
11922;DHT22;6021;51.182;3.160;2022-12-31T16:42:21;14.10;41.50
11922;DHT22;6021;51.182;3.160;2022-12-31T16:44:51;14.10;38.00
11922;DHT22;6021;51.182;3.160;2022-12-31T16:47:22;14.10;37.80
11922;DHT22;6021;51.182;3.160;2022-12-31T16:50:03;14.10;38.50
11922;DHT22;6021;51.182;3.160;2022-12-31T16:52:38;14.10;64.10
11922;DHT22;6021;51.182;3.160;2022-12-31T16:55:14;14.30;31.00
11922;DHT22;6021;51.182;3.160;2022-12-31T16:57:37;14.20;23.40
11922;DHT22;6021;51.182;3.160;2022-12-31T17:00:06;14.20;25.20
11922;DHT22;6021;51.182;3.160;2022-12-31T17:02:42;14.10;14.20
11922;DHT22;6021;51.182;3.160;2022-12-31T17:05:18;14.10;17.00
11922;DHT22;6021;51.182;3.160;2022-12-31T17:07:47;14.30;8.80
11922;DHT22;6021;51.182;3.160;2022-12-31T17:10:18;14.10;3.90
11922;DHT22;6021;51.182;3.160;2022-12-31T17:12:54;14.30;1.00
11922;DHT22;6021;51.182;3.160;2022-12-31T17:15:36;14.30;1.00
11922;DHT22;6021;51.182;3.160;2022-12-31T17:18:00;14.30;1.00
11922;DHT22;6021;51.182;3.160;2022-12-31T17:20:31;14.10;1.00
11922;DHT22;6021;51.182;3.160;2022-12-31T17:23:04;14.30;1.00
11922;DHT22;6021;51.182;3.160;2022-12-31T17:25:36;14.50;1.00
11922;DHT22;6021;51.182;3.160;2022-12-31T17:28:18;14.20;1.00
11922;DHT22;6021;51.182;3.160;2022-12-31T17:30:42;14.20;1.00
11922;DHT22;6021;51.182;3.160;2022-12-31T17:36:12;14.30;1.00
11922;DHT22;6021;51.182;3.160;2022-12-31T17:38:41;14.30;1.00
11922;DHT22;6021;51.182;3.160;2022-12-31T17:41:16;14.20;1.00
11922;DHT22;6021;51.182;3.160;2022-12-31T17:43:45;14.30;1.00
11922;DHT22;6021;51.182;3.160;2022-12-31T17:46:16;14.20;1.00
11922;DHT22;6021;51.182;3.160;2022-12-31T17:48:46;14.10;1.00
11922;DHT22;6021;51.182;3.160;2022-12-31T17:51:14;14.10;1.00
11922;DHT22;6021;51.182;3.160;2022-12-31T17:53:43;14.10;1.00
11922;DHT22;6021;51.182;3.160;2022-12-31T17:56:13;14.10;1.00
11922;DHT22;6021;51.182;3.160;2022-12-31T17:58:52;14.10;1.00
11922;DHT22;6021;51.182;3.160;2022-12-31T18:01:21;14.10;1.00
11922;DHT22;6021;51.182;3.160;2022-12-31T18:03:50;14.00;1.00
11922;DHT22;6021;51.182;3.160;2022-12-31T18:06:18;14.10;1.00
11922;DHT22;6021;51.182;3.160;2022-12-31T18:08:47;14.10;1.00
11922;DHT22;6021;51.182;3.160;2022-12-31T18:11:23;14.00;1.00
11922;DHT22;6021;51.182;3.160;2022-12-31T18:13:52;13.90;1.00
11922;DHT22;6021;51.182;3.160;2022-12-31T18:16:21;14.00;1.00
11922;DHT22;6021;51.182;3.160;2022-12-31T18:18:49;13.80;1.00
11922;DHT22;6021;51.182;3.160;2022-12-31T18:21:24;13.70;1.00
11922;DHT22;6021;51.182;3.160;2022-12-31T18:23:52;14.00;1.00
11922;DHT22;6021;51.182;3.160;2022-12-31T18:26:22;14.10;1.00
11922;DHT22;6021;51.182;3.160;2022-12-31T18:28:51;14.00;1.00
11922;DHT22;6021;51.182;3.160;2022-12-31T18:31:25;14.10;1.00
11922;DHT22;6021;51.182;3.160;2022-12-31T18:33:56;14.10;1.00
11922;DHT22;6021;51.182;3.160;2022-12-31T18:36:27;14.20;1.00
11922;DHT22;6021;51.182;3.160;2022-12-31T18:38:59;14.20;1.00
11922;DHT22;6021;51.182;3.160;2022-12-31T18:41:30;14.10;1.00
11922;DHT22;6021;51.182;3.160;2022-12-31T18:43:58;14.20;1.00
11922;DHT22;6021;51.182;3.160;2022-12-31T18:46:27;14.20;1.00
11922;DHT22;6021;51.182;3.160;2022-12-31T18:48:55;14.20;1.00
11922;DHT22;6021;51.182;3.160;2022-12-31T18:51:24;14.20;1.00
11922;DHT22;6021;51.182;3.160;2022-12-31T18:53:54;14.20;1.00
11922;DHT22;6021;51.182;3.160;2022-12-31T18:56:24;14.30;1.00
11922;DHT22;6021;51.182;3.160;2022-12-31T18:58:52;14.20;1.00
11922;DHT22;6021;51.182;3.160;2022-12-31T19:01:29;14.10;1.00
11922;DHT22;6021;51.182;3.160;2022-12-31T19:04:01;14.20;1.00
11922;DHT22;6021;51.182;3.160;2022-12-31T19:06:29;14.10;1.00
11922;DHT22;6021;51.182;3.160;2022-12-31T19:08:58;14.20;1.00
11922;DHT22;6021;51.182;3.160;2022-12-31T19:11:26;14.20;1.00
11922;DHT22;6021;51.182;3.160;2022-12-31T19:13:55;14.30;1.00
11922;DHT22;6021;51.182;3.160;2022-12-31T19:16:23;14.20;1.00
11922;DHT22;6021;51.182;3.160;2022-12-31T19:18:52;14.20;1.00
11922;DHT22;6021;51.182;3.160;2022-12-31T19:21:21;14.00;1.00
11922;DHT22;6021;51.182;3.160;2022-12-31T19:23:50;14.40;1.00
11922;DHT22;6021;51.182;3.160;2022-12-31T19:26:21;14.40;1.00
11922;DHT22;6021;51.182;3.160;2022-12-31T19:28:50;14.60;1.00
11922;DHT22;6021;51.182;3.160;2022-12-31T19:31:20;14.50;1.00
11922;DHT22;6021;51.182;3.160;2022-12-31T19:33:49;14.50;1.00
11922;DHT22;6021;51.182;3.160;2022-12-31T19:36:19;14.50;1.00
11922;DHT22;6021;51.182;3.160;2022-12-31T19:38:48;14.50;1.00
11922;DHT22;6021;51.182;3.160;2022-12-31T19:41:18;14.50;1.00
11922;DHT22;6021;51.182;3.160;2022-12-31T19:43:48;14.50;1.00
11922;DHT22;6021;51.182;3.160;2022-12-31T19:46:17;14.50;1.00
11922;DHT22;6021;51.182;3.160;2022-12-31T19:48:46;14.60;1.00
11922;DHT22;6021;51.182;3.160;2022-12-31T19:51:17;14.50;1.00
11922;DHT22;6021;51.182;3.160;2022-12-31T19:53:47;14.50;1.00
11922;DHT22;6021;51.182;3.160;2022-12-31T19:56:18;14.60;1.00
11922;DHT22;6021;51.182;3.160;2022-12-31T19:58:47;14.70;1.00
11922;DHT22;6021;51.182;3.160;2022-12-31T20:01:23;14.60;1.00
11922;DHT22;6021;51.182;3.160;2022-12-31T20:03:51;14.60;1.00
11922;DHT22;6021;51.182;3.160;2022-12-31T20:06:20;14.50;1.00
11922;DHT22;6021;51.182;3.160;2022-12-31T20:08:48;14.60;1.00
11922;DHT22;6021;51.182;3.160;2022-12-31T20:11:19;14.60;1.00
11922;DHT22;6021;51.182;3.160;2022-12-31T20:13:48;14.60;1.00
11922;DHT22;6021;51.182;3.160;2022-12-31T20:16:20;14.60;1.00
11922;DHT22;6021;51.182;3.160;2022-12-31T20:18:50;14.60;1.00
11922;DHT22;6021;51.182;3.160;2022-12-31T20:21:20;14.50;1.00
11922;DHT22;6021;51.182;3.160;2022-12-31T20:23:50;14.60;1.00
11922;DHT22;6021;51.182;3.160;2022-12-31T20:26:20;14.50;1.00
11922;DHT22;6021;51.182;3.160;2022-12-31T20:28:49;14.60;1.00
11922;DHT22;6021;51.182;3.160;2022-12-31T20:31:20;14.60;1.00
11922;DHT22;6021;51.182;3.160;2022-12-31T20:33:52;14.60;1.00